Time;durP1;ratioP1;P1;durP2;ratioP2;P2;SDS_P1;SDS_P2;PMS_P1;PMS_P2;Temp;Humidity;BMP_temperature;BMP_pressure;BME280_temperature;BME280_humidity;BME280_pressure;Samples;Min_cycle;Max_cycle;Signal;HPM_P1;HPM_P2
2022/09/08 00:00:10;;;;;;;14.43;11.00;;;16.00;99.90;;;;;;5010696;28;20490;-87
2022/09/08 00:02:36;;;;;;;12.15;10.68;;;16.00;99.90;;;;;;4980953;28;20041;-87
2022/09/08 00:05:03;;;;;;;12.60;10.25;;;15.90;99.90;;;;;;4991356;28;20561;-87
2022/09/08 00:07:32;;;;;;;14.23;11.07;;;15.90;99.90;;;;;;4989217;28;20050;-87
2022/09/08 00:09:59;;;;;;;14.80;11.27;;;15.90;99.90;;;;;;5007303;28;20117;-87
2022/09/08 00:12:25;;;;;;;14.32;10.82;;;15.90;99.90;;;;;;5006803;28;20122;-88
2022/09/08 00:14:52;;;;;;;12.40;10.93;;;15.90;99.90;;;;;;4968234;28;20129;-87
2022/09/08 00:17:18;;;;;;;12.73;11.43;;;15.70;99.90;;;;;;4993348;28;20195;-88
2022/09/08 00:19:45;;;;;;;15.02;11.60;;;15.70;99.90;;;;;;4982913;28;20157;-88
2022/09/08 00:22:10;;;;;;;17.02;11.90;;;15.70;99.90;;;;;;4983670;28;20410;-87
2022/09/08 00:24:36;;;;;;;16.10;12.90;;;15.70;99.90;;;;;;4978415;28;20062;-87
2022/09/08 00:27:02;;;;;;;16.05;12.70;;;15.80;99.90;;;;;;4981214;28;20050;-87
2022/09/08 00:29:28;;;;;;;18.67;13.68;;;15.80;99.90;;;;;;4966843;28;20050;-89
2022/09/08 00:31:53;;;;;;;17.33;14.63;;;15.80;99.90;;;;;;5003031;28;20517;-88
2022/09/08 00:34:19;;;;;;;19.90;16.02;;;15.70;99.90;;;;;;4966691;28;20057;-87
2022/09/08 00:36:45;;;;;;;20.15;14.95;;;15.70;99.90;;;;;;4985912;28;20109;-87
2022/09/08 00:39:10;;;;;;;18.65;15.82;;;15.70;99.90;;;;;;4983128;28;20046;-87
2022/09/08 00:41:36;;;;;;;20.63;16.88;;;15.80;99.90;;;;;;4974254;28;20038;-88
2022/09/08 00:44:41;;;;;;;18.45;16.30;;;15.70;99.90;;;;;;4982042;28;20618;-88
2022/09/08 00:47:19;;;;;;;20.70;17.42;;;15.70;99.90;;;;;;4974007;28;20042;-87
2022/09/08 00:49:48;;;;;;;19.13;16.42;;;15.70;99.90;;;;;;5005521;28;20435;-87
2022/09/08 00:52:14;;;;;;;24.27;19.85;;;15.70;99.90;;;;;;5006745;28;20053;-87
2022/09/08 00:54:41;;;;;;;23.48;19.73;;;15.70;99.90;;;;;;4976797;28;20030;-89
2022/09/08 00:57:07;;;;;;;21.65;18.38;;;15.70;99.90;;;;;;5002679;28;20119;-87
2022/09/08 00:59:36;;;;;;;22.80;19.63;;;15.70;99.90;;;;;;4987353;28;20132;-87
2022/09/08 01:02:23;;;;;;;24.58;21.20;;;15.70;99.90;;;;;;4978790;28;20050;-87
2022/09/08 01:04:55;;;;;;;29.58;20.83;;;15.70;99.90;;;;;;4980027;28;20047;-87
2022/09/08 01:13:48;;;;;;;26.90;22.67;;;15.70;99.90;;;;;;4972252;28;20058;-88
2022/09/08 01:16:13;;;;;;;26.17;22.63;;;15.70;99.90;;;;;;4980026;28;20050;-88
2022/09/08 01:18:40;;;;;;;25.52;22.73;;;15.70;99.90;;;;;;4970709;28;20108;-88
2022/09/08 01:21:29;;;;;;;26.67;23.02;;;15.70;99.90;;;;;;4982223;28;20133;-87
2022/09/08 01:24:05;;;;;;;32.10;24.58;;;15.70;99.90;;;;;;4985079;28;20042;-87
2022/09/08 01:27:15;;;;;;;27.00;21.80;;;15.70;99.90;;;;;;4975003;28;20307;-88
2022/09/08 01:29:43;;;;;;;33.97;25.73;;;15.70;99.90;;;;;;4996341;28;20054;-88
2022/09/08 01:32:10;;;;;;;33.85;25.15;;;15.90;99.90;;;;;;4978047;28;20108;-88
2022/09/08 01:34:38;;;;;;;30.25;25.88;;;15.80;99.90;;;;;;4995603;28;20095;-88
2022/09/08 01:37:04;;;;;;;31.58;27.13;;;15.80;99.90;;;;;;5006547;28;20034;-87
2022/09/08 01:39:31;;;;;;;34.95;28.60;;;15.90;99.90;;;;;;4995024;28;20038;-88
2022/09/08 01:41:57;;;;;;;32.42;28.75;;;15.90;99.90;;;;;;4979892;28;20066;-87
2022/09/08 01:44:22;;;;;;;35.88;28.60;;;16.00;99.90;;;;;;5008012;28;20038;-89
2022/09/08 01:46:49;;;;;;;34.67;30.27;;;16.00;99.90;;;;;;4989308;28;20049;-88
2022/09/08 01:49:14;;;;;;;36.45;29.05;;;16.00;99.90;;;;;;4971161;28;20034;-88
2022/09/08 01:51:40;;;;;;;38.05;31.65;;;16.00;99.90;;;;;;4973637;28;20360;-88
2022/09/08 01:54:06;;;;;;;38.08;32.30;;;16.10;99.90;;;;;;5008848;28;20453;-88
2022/09/08 01:56:32;;;;;;;38.17;32.60;;;16.10;99.90;;;;;;4993924;28;20139;-86
2022/09/08 01:58:58;;;;;;;40.92;32.45;;;16.20;99.90;;;;;;4980381;28;20072;-88
2022/09/08 02:01:24;;;;;;;38.28;33.97;;;16.20;99.90;;;;;;4985979;28;20371;-87
2022/09/08 02:03:52;;;;;;;40.55;33.65;;;16.30;99.90;;;;;;4984542;28;20318;-87
2022/09/08 02:06:18;;;;;;;40.53;34.03;;;16.30;99.90;;;;;;4979088;28;20053;-88
2022/09/08 02:08:49;;;;;;;40.28;34.55;;;16.40;99.90;;;;;;4986237;28;20061;-88
2022/09/08 02:11:16;;;;;;;39.75;34.42;;;16.40;99.90;;;;;;4981451;28;20043;-88
2022/09/08 02:13:42;;;;;;;45.38;36.95;;;16.40;99.90;;;;;;4963373;28;20042;-88
2022/09/08 02:16:11;;;;;;;45.20;36.83;;;16.50;99.90;;;;;;4987196;28;20030;-88
2022/09/08 02:18:38;;;;;;;47.03;38.38;;;16.60;99.90;;;;;;4973282;28;20097;-88
2022/09/08 02:21:03;;;;;;;47.75;39.17;;;16.50;99.90;;;;;;5009475;28;20042;-89
2022/09/08 02:23:29;;;;;;;51.88;40.50;;;16.70;99.90;;;;;;4967537;28;21267;-88
2022/09/08 02:25:55;;;;;;;48.88;40.05;;;16.70;99.90;;;;;;5007964;28;20061;-88
2022/09/08 02:28:21;;;;;;;50.42;40.40;;;16.70;99.90;;;;;;4985506;28;20046;-88
2022/09/08 02:30:46;;;;;;;51.05;41.92;;;16.70;99.90;;;;;;4988109;28;20053;-87
2022/09/08 02:33:13;;;;;;;51.70;41.40;;;16.80;99.90;;;;;;4983295;28;20056;-88
2022/09/08 02:35:38;;;;;;;47.90;39.03;;;16.70;99.90;;;;;;5009707;28;20046;-88
2022/09/08 02:38:04;;;;;;;51.72;40.58;;;16.80;99.90;;;;;;4992803;28;20401;-88
2022/09/08 02:40:33;;;;;;;47.05;40.10;;;16.80;99.90;;;;;;4994779;28;20188;-88
2022/09/08 02:43:01;;;;;;;53.28;41.58;;;16.80;99.90;;;;;;4970438;28;20105;-87
2022/09/08 02:45:30;;;;;;;48.13;39.63;;;16.80;99.90;;;;;;4965172;28;20480;-88
2022/09/08 02:47:56;;;;;;;51.13;41.33;;;16.80;99.90;;;;;;4960781;28;20041;-88
2022/09/08 02:50:21;;;;;;;47.70;40.40;;;16.90;99.90;;;;;;4979165;28;20073;-88
2022/09/08 02:52:47;;;;;;;46.50;40.08;;;16.90;99.90;;;;;;4969687;28;20038;-88
2022/09/08 02:55:13;;;;;;;51.50;40.67;;;16.90;99.90;;;;;;4970992;28;20076;-87
2022/09/08 02:57:38;;;;;;;48.67;40.20;;;16.90;99.90;;;;;;4966555;28;20049;-88
2022/09/08 03:00:05;;;;;;;49.42;40.47;;;16.80;99.90;;;;;;4969749;28;20038;-88
2022/09/08 03:02:30;;;;;;;47.13;40.28;;;16.80;99.90;;;;;;4979825;28;20039;-88
2022/09/08 03:04:56;;;;;;;47.45;39.90;;;16.80;99.90;;;;;;4974775;28;20045;-87
2022/09/08 03:07:22;;;;;;;47.83;39.35;;;16.80;99.90;;;;;;4980472;28;20184;-88
2022/09/08 03:09:49;;;;;;;48.05;41.17;;;16.80;99.90;;;;;;4971391;28;20446;-87
2022/09/08 03:12:15;;;;;;;51.08;42.35;;;16.80;99.90;;;;;;4977472;28;20034;-89
2022/09/08 03:14:40;;;;;;;51.72;41.97;;;16.80;99.90;;;;;;4970240;28;20231;-89
2022/09/08 03:17:06;;;;;;;50.72;41.85;;;16.80;99.90;;;;;;4984956;28;20152;-88
2022/09/08 03:19:32;;;;;;;49.55;41.25;;;16.90;99.90;;;;;;4978628;28;20410;-88
2022/09/08 03:21:58;;;;;;;51.38;41.90;;;16.80;99.90;;;;;;4979823;28;20135;-88
2022/09/08 03:24:24;;;;;;;50.92;43.42;;;16.80;99.90;;;;;;4986825;28;20853;-89
2022/09/08 03:26:49;;;;;;;49.20;40.45;;;16.80;99.90;;;;;;4991002;28;20475;-88
2022/09/08 03:29:15;;;;;;;51.72;41.80;;;16.80;99.90;;;;;;4964280;28;20109;-88
2022/09/08 03:31:41;;;;;;;55.22;42.65;;;16.80;99.90;;;;;;4966194;28;20129;-88
2022/09/08 03:34:09;;;;;;;52.65;42.83;;;16.90;99.90;;;;;;4962032;28;20138;-89
2022/09/08 03:36:35;;;;;;;55.47;43.85;;;16.80;99.90;;;;;;4991393;28;20069;-87
2022/09/08 03:39:01;;;;;;;52.03;42.25;;;16.90;99.90;;;;;;4970499;28;20164;-89
2022/09/08 03:41:27;;;;;;;52.22;42.70;;;16.80;99.90;;;;;;4979983;28;20161;-87
2022/09/08 03:43:53;;;;;;;52.28;43.80;;;16.90;99.90;;;;;;4982210;28;20117;-87
2022/09/08 03:46:22;;;;;;;56.72;45.08;;;16.80;99.90;;;;;;4964783;28;20624;-88
2022/09/08 03:48:47;;;;;;;55.20;44.53;;;16.90;99.90;;;;;;4979674;28;20049;-88
2022/09/08 03:51:22;;;;;;;54.55;45.83;;;16.90;99.90;;;;;;4981615;28;20038;-88
2022/09/08 03:53:47;;;;;;;56.22;44.55;;;16.90;99.90;;;;;;4984057;28;20113;-87
2022/09/08 03:56:13;;;;;;;53.97;44.60;;;16.90;99.90;;;;;;4978057;28;20301;-87
2022/09/08 03:58:39;;;;;;;56.25;44.65;;;16.90;99.90;;;;;;4965102;28;20058;-87
2022/09/08 04:01:16;;;;;;;58.38;44.28;;;16.90;99.90;;;;;;4983760;28;20478;-89
2022/09/08 04:03:42;;;;;;;56.15;44.50;;;16.90;99.90;;;;;;4994730;28;20134;-88
2022/09/08 04:06:09;;;;;;;54.75;44.22;;;16.90;99.90;;;;;;4980793;28;20149;-89
2022/09/08 04:08:35;;;;;;;56.17;45.42;;;16.90;99.90;;;;;;4990628;28;20053;-87
2022/09/08 04:11:01;;;;;;;57.13;45.08;;;16.90;99.90;;;;;;4994026;28;20045;-87
2022/09/08 04:13:30;;;;;;;55.95;43.83;;;16.90;99.90;;;;;;4965125;28;20061;-88
2022/09/08 04:15:56;;;;;;;52.05;44.25;;;16.90;99.90;;;;;;4983961;28;20044;-88
2022/09/08 04:18:22;;;;;;;53.85;44.03;;;16.90;99.90;;;;;;4992118;28;20137;-88
2022/09/08 04:20:56;;;;;;;54.83;43.03;;;17.00;99.90;;;;;;5006357;28;20035;-89
2022/09/08 04:23:22;;;;;;;57.67;44.17;;;16.90;99.90;;;;;;4964024;28;20379;-89
2022/09/08 04:29:39;;;;;;;55.25;44.05;;;16.90;99.90;;;;;;4984459;28;20099;-88
2022/09/08 04:32:52;;;;;;;54.85;44.72;;;16.90;99.90;;;;;;4989537;28;20046;-87
2022/09/08 04:36:02;;;;;;;54.30;43.55;;;17.00;99.90;;;;;;4985623;28;20038;-87
2022/09/08 04:38:27;;;;;;;56.20;44.63;;;16.90;99.90;;;;;;5005973;28;20042;-87
2022/09/08 04:41:02;;;;;;;55.53;44.60;;;16.90;99.90;;;;;;4981814;28;20048;-87
2022/09/08 08:23:44;;;;;;;43.75;33.90;;;17.70;99.90;;;;;;4953719;28;20829;-92
2022/09/08 08:26:38;;;;;;;44.33;35.80;;;17.70;99.90;;;;;;5002149;28;20045;-92
2022/09/08 08:29:14;;;;;;;48.03;39.10;;;17.80;99.90;;;;;;4973602;28;20050;-92
2022/09/08 08:31:51;;;;;;;44.63;37.17;;;17.90;99.90;;;;;;4991468;28;20034;-91
2022/09/08 08:34:29;;;;;;;53.38;39.75;;;17.80;99.90;;;;;;4999282;28;20124;-91
2022/09/08 08:37:01;;;;;;;50.38;40.03;;;18.00;99.90;;;;;;4975747;28;20042;-90
2022/09/08 08:39:33;;;;;;;51.58;41.05;;;17.90;99.90;;;;;;4977885;28;20042;-91
2022/09/08 08:42:14;;;;;;;47.45;40.30;;;17.90;99.90;;;;;;4972877;28;20239;-91
2022/09/08 08:44:55;;;;;;;48.72;39.75;;;18.10;99.90;;;;;;4968325;28;20049;-93
2022/09/08 08:47:32;;;;;;;47.30;39.67;;;18.10;99.90;;;;;;4958873;28;20142;-91
2022/09/08 08:50:07;;;;;;;49.42;40.40;;;18.20;99.90;;;;;;4981799;28;20057;-92
2022/09/08 08:52:52;;;;;;;46.88;39.80;;;18.10;99.90;;;;;;4961563;28;20038;-92
2022/09/08 08:55:52;;;;;;;47.80;37.43;;;18.30;99.90;;;;;;4965320;28;20113;-90
2022/09/08 08:58:49;;;;;;;39.83;34.75;;;18.20;99.90;;;;;;4999374;28;20109;-91
2022/09/08 09:01:38;;;;;;;40.22;33.70;;;18.10;99.90;;;;;;4972588;28;20030;-91
2022/09/08 09:04:06;;;;;;;36.63;30.65;;;18.20;99.90;;;;;;4987875;28;20081;-94
2022/09/08 09:06:47;;;;;;;32.47;28.42;;;18.20;99.90;;;;;;4965739;28;20053;-91
2022/09/08 09:09:52;;;;;;;30.83;25.17;;;18.10;99.90;;;;;;4990599;28;20061;-91
2022/09/08 09:12:35;;;;;;;24.98;22.02;;;18.10;99.90;;;;;;4967850;28;20049;-92
2022/09/08 09:15:34;;;;;;;21.08;18.80;;;18.30;99.90;;;;;;4996469;28;20053;-92
2022/09/08 09:18:17;;;;;;;21.35;18.83;;;18.40;99.90;;;;;;4971997;28;20107;-93
2022/09/08 09:20:57;;;;;;;19.35;17.10;;;18.20;99.90;;;;;;4980495;28;20050;-90
2022/09/08 09:23:35;;;;;;;17.58;15.55;;;18.30;99.90;;;;;;5007041;28;20046;-93
2022/09/08 09:26:12;;;;;;;18.63;15.95;;;18.20;99.90;;;;;;4990032;28;20623;-91
2022/09/08 09:29:01;;;;;;;18.60;15.40;;;18.40;99.90;;;;;;4965684;28;20050;-92
2022/09/08 09:31:53;;;;;;;17.42;14.95;;;18.40;99.90;;;;;;5005469;28;20331;-91
2022/09/08 09:34:41;;;;;;;15.23;13.68;;;18.30;99.90;;;;;;4993123;28;20047;-92
2022/09/08 09:37:28;;;;;;;14.63;12.07;;;18.40;99.90;;;;;;5003174;28;20047;-91
2022/09/08 09:40:09;;;;;;;13.68;11.98;;;18.50;99.90;;;;;;4966237;28;20073;-92
2022/09/08 09:43:08;;;;;;;12.35;10.40;;;18.60;99.90;;;;;;4999936;28;20049;-94
2022/09/08 09:45:49;;;;;;;11.55;8.43;;;18.40;99.90;;;;;;4997241;28;20052;-92
2022/09/08 09:48:29;;;;;;;10.75;8.52;;;18.30;99.90;;;;;;4993102;28;20040;-93
2022/09/08 09:51:14;;;;;;;10.05;8.98;;;18.60;99.90;;;;;;4967934;28;20046;-93
2022/09/08 09:54:14;;;;;;;12.70;8.32;;;18.30;99.90;;;;;;4996672;28;20042;-94
2022/09/08 09:56:42;;;;;;;9.07;7.78;;;18.40;99.90;;;;;;4965532;28;20149;-94
2022/09/08 09:59:17;;;;;;;11.13;8.27;;;18.40;99.90;;;;;;4977199;28;20494;-92
2022/09/08 10:01:49;;;;;;;10.13;7.80;;;18.70;99.90;;;;;;4973697;28;20034;-94
2022/09/08 10:04:37;;;;;;;9.93;7.47;;;18.60;99.90;;;;;;4975448;28;20099;-92
2022/09/08 10:07:22;;;;;;;9.20;7.15;;;18.60;99.90;;;;;;4960512;28;20487;-92
2022/09/08 10:10:09;;;;;;;8.63;6.77;;;18.60;99.90;;;;;;4976456;28;20142;-91
2022/09/08 10:13:00;;;;;;;8.45;6.57;;;18.70;99.90;;;;;;5000990;28;20305;-92
2022/09/08 10:15:29;;;;;;;7.65;6.43;;;18.80;99.90;;;;;;4988076;28;20142;-92
2022/09/08 10:18:34;;;;;;;7.03;6.20;;;18.80;99.90;;;;;;4973840;28;20046;-93
2022/09/08 10:21:08;;;;;;;6.93;5.50;;;18.50;99.90;;;;;;4998704;28;20466;-92
2022/09/08 10:24:02;;;;;;;5.97;5.10;;;18.50;99.90;;;;;;4986840;28;20038;-92
2022/09/08 10:26:46;;;;;;;8.23;5.78;;;18.40;99.90;;;;;;5016344;28;20133;-91
2022/09/08 10:29:31;;;;;;;8.10;6.30;;;18.70;99.90;;;;;;4969175;28;20049;-92
2022/09/08 10:32:15;;;;;;;7.03;5.63;;;18.60;99.90;;;;;;4982536;28;20173;-92
2022/09/08 10:34:54;;;;;;;7.33;5.77;;;18.60;99.90;;;;;;4973685;28;20046;-91
2022/09/08 10:38:00;;;;;;;5.80;5.20;;;18.50;99.90;;;;;;4968512;28;20278;-92
2022/09/08 10:40:57;;;;;;;5.32;4.80;;;18.60;99.90;;;;;;4999885;28;20038;-92
2022/09/08 10:43:38;;;;;;;6.28;5.00;;;18.60;99.90;;;;;;4971091;28;20026;-94
2022/09/08 10:46:04;;;;;;;5.88;5.10;;;18.50;99.90;;;;;;4961255;28;20050;-93
2022/09/08 10:49:17;;;;;;;6.53;4.55;;;18.60;99.90;;;;;;4961977;28;20038;-93
2022/09/08 10:52:08;;;;;;;6.15;4.00;;;18.40;99.90;;;;;;4953569;28;20042;-94
2022/09/08 10:55:07;;;;;;;4.50;3.67;;;18.40;99.90;;;;;;4997196;28;20332;-91
2022/09/08 10:57:51;;;;;;;3.80;3.33;;;18.70;99.90;;;;;;4974046;28;20049;-92
2022/09/08 11:00:21;;;;;;;3.75;2.50;;;18.70;99.90;;;;;;4993900;28;20101;-94
2022/09/08 11:03:06;;;;;;;3.55;2.00;;;18.40;99.90;;;;;;5001416;28;20038;-93
2022/09/08 11:05:48;;;;;;;4.90;1.83;;;18.60;99.90;;;;;;4983144;28;20045;-93
2022/09/08 11:08:51;;;;;;;3.40;1.70;;;18.40;99.90;;;;;;4999534;28;20114;-94
2022/09/08 11:11:26;;;;;;;3.22;1.70;;;18.30;99.90;;;;;;4995687;28;20038;-94
2022/09/08 11:14:20;;;;;;;3.45;1.40;;;18.20;99.90;;;;;;4991857;28;20274;-92
2022/09/08 11:16:56;;;;;;;3.65;1.70;;;18.20;99.90;;;;;;4958168;28;20050;-93
2022/09/08 11:19:41;;;;;;;3.10;1.70;;;18.30;99.90;;;;;;4976164;28;20489;-93
2022/09/08 11:22:13;;;;;;;5.47;2.07;;;18.20;99.90;;;;;;4976689;28;20061;-93
2022/09/08 11:24:45;;;;;;;2.50;1.88;;;18.20;99.90;;;;;;4990448;28;20053;-92
2022/09/08 11:27:41;;;;;;;4.93;2.20;;;18.10;99.90;;;;;;4976478;28;20050;-94
2022/09/08 11:30:17;;;;;;;;;;;18.30;99.90;;;;;;4993039;28;20038;-93
2022/09/08 11:32:58;;;;;;;5.20;2.30;;;18.40;99.90;;;;;;4995382;28;19929;-91
2022/09/08 11:35:35;;;;;;;2.95;2.20;;;18.30;99.90;;;;;;4976190;28;20568;-92
2022/09/08 11:38:26;;;;;;;3.70;2.00;;;18.30;99.90;;;;;;4957010;28;20043;-92
2022/09/08 11:41:26;;;;;;;4.35;2.35;;;18.30;99.90;;;;;;4961477;28;20043;-93
2022/09/08 11:44:00;;;;;;;3.15;2.00;;;18.40;99.90;;;;;;4995726;28;20038;-93
2022/09/08 11:46:47;;;;;;;4.13;2.00;;;18.10;99.90;;;;;;4969863;28;20138;-93
2022/09/08 11:49:22;;;;;;;2.97;2.10;;;18.30;99.90;;;;;;4998965;28;20046;-94
2022/09/08 11:52:21;;;;;;;2.42;1.90;;;18.30;99.90;;;;;;5013581;28;20046;-95
2022/09/08 11:55:18;;;;;;;3.42;1.90;;;18.40;99.90;;;;;;4971408;28;20057;-94
2022/09/08 11:58:05;;;;;;;4.63;2.30;;;18.40;99.90;;;;;;5009115;28;20047;-92
2022/09/08 12:00:49;;;;;;;4.20;1.80;;;18.40;99.90;;;;;;4968594;28;20160;-95
2022/09/08 12:03:36;;;;;;;3.75;2.40;;;18.40;99.90;;;;;;4955568;28;20051;-93
2022/09/08 12:06:41;;;;;;;5.55;2.10;;;18.40;99.90;;;;;;4977227;28;20050;-93
2022/09/08 12:09:21;;;;;;;4.43;2.15;;;18.40;99.90;;;;;;4971768;28;20069;-92
2022/09/08 12:12:11;;;;;;;4.05;2.30;;;18.30;99.90;;;;;;4971998;28;20139;-92
2022/09/08 12:15:01;;;;;;;4.07;2.30;;;18.60;99.90;;;;;;4967968;28;20053;-91
2022/09/08 12:17:55;;;;;;;4.10;2.53;;;18.50;99.90;;;;;;4966099;28;20514;-91
2022/09/08 12:20:39;;;;;;;3.15;2.10;;;18.60;99.90;;;;;;4969602;28;20042;-93
2022/09/08 12:23:30;;;;;;;4.60;2.70;;;18.70;99.90;;;;;;4997475;28;20525;-93
2022/09/08 12:26:01;;;;;;;4.72;2.72;;;18.60;99.90;;;;;;4975791;28;20049;-92
2022/09/08 12:28:33;;;;;;;3.67;2.75;;;18.80;99.90;;;;;;4973358;28;20055;-91
2022/09/08 12:31:20;;;;;;;3.40;2.50;;;18.90;99.90;;;;;;4989635;28;20049;-91
2022/09/08 12:34:13;;;;;;;5.18;3.00;;;18.80;99.90;;;;;;4975038;28;20145;-93
2022/09/08 12:36:46;;;;;;;4.03;3.00;;;18.90;99.90;;;;;;4955508;28;20051;-91
2022/09/08 12:39:27;;;;;;;4.20;2.67;;;18.90;99.90;;;;;;4963913;28;20056;-90
2022/09/08 12:42:21;;;;;;;5.10;3.00;;;19.00;99.90;;;;;;4956908;28;20046;-91
2022/09/08 12:45:14;;;;;;;5.03;2.90;;;18.80;99.90;;;;;;4994613;28;20383;-91
2022/09/08 12:47:56;;;;;;;3.83;3.05;;;18.90;99.90;;;;;;4977244;28;20054;-92
2022/09/08 12:50:31;;;;;;;3.85;2.67;;;18.70;99.90;;;;;;4958916;28;20190;-93
2022/09/08 12:53:28;;;;;;;3.35;2.75;;;18.60;99.90;;;;;;4981223;28;20035;-91
2022/09/08 12:56:01;;;;;;;3.08;2.78;;;18.70;99.90;;;;;;4965571;28;20042;-92
2022/09/08 12:58:37;;;;;;;4.18;2.85;;;18.70;99.90;;;;;;4986578;28;20113;-92
2022/09/08 13:01:25;;;;;;;3.33;2.55;;;18.70;99.90;;;;;;4966068;28;20107;-92
2022/09/08 13:03:57;;;;;;;3.75;2.70;;;18.70;99.90;;;;;;4967392;28;20066;-91
2022/09/08 13:06:32;;;;;;;4.65;2.92;;;18.90;99.90;;;;;;4991814;28;20045;-92
2022/09/08 13:08:59;;;;;;;4.35;2.70;;;18.90;99.90;;;;;;4982217;28;20042;-92
2022/09/08 13:12:03;;;;;;;3.45;2.88;;;18.80;99.90;;;;;;4963580;28;20157;-93
2022/09/08 13:14:44;;;;;;;4.15;3.08;;;19.00;99.90;;;;;;4950977;28;20054;-91
2022/09/08 13:17:45;;;;;;;6.40;3.50;;;19.00;99.90;;;;;;4961259;28;20058;-93
2022/09/08 13:20:11;;;;;;;4.45;3.45;;;19.10;99.90;;;;;;4994249;28;20047;-92
2022/09/08 13:23:08;;;;;;;6.32;3.80;;;18.90;99.90;;;;;;4989085;28;20045;-91
2022/09/08 13:26:01;;;;;;;4.72;3.67;;;19.10;99.90;;;;;;4999305;28;20431;-92
2022/09/08 13:28:41;;;;;;;4.30;3.90;;;19.20;99.90;;;;;;5016404;28;20078;-93
2022/09/08 13:31:34;;;;;;;4.30;3.88;;;19.20;99.90;;;;;;4968039;28;20098;-91
2022/09/08 13:34:25;;;;;;;5.07;4.57;;;19.30;99.90;;;;;;4971232;28;20036;-91
2022/09/08 13:37:04;;;;;;;6.45;5.10;;;19.30;99.90;;;;;;5000746;28;20523;-91
2022/09/08 13:39:45;;;;;;;5.53;4.70;;;19.30;99.90;;;;;;4998673;28;20053;-93
2022/09/08 13:42:46;;;;;;;7.25;5.15;;;19.40;99.90;;;;;;4979600;28;20068;-92
2022/09/08 13:45:17;;;;;;;5.88;5.30;;;19.40;99.90;;;;;;4979125;28;20057;-91
2022/09/08 13:48:10;;;;;;;6.78;5.47;;;19.50;99.90;;;;;;4977299;28;20401;-92
2022/09/08 13:51:00;;;;;;;9.77;5.53;;;19.40;99.90;;;;;;4995663;28;20050;-93
2022/09/08 13:53:32;;;;;;;8.45;6.22;;;19.80;99.90;;;;;;4966506;28;20418;-92
2022/09/08 13:56:18;;;;;;;7.78;6.00;;;19.70;99.90;;;;;;4978846;28;20125;-92
2022/09/08 13:58:46;;;;;;;7.53;6.38;;;19.80;99.90;;;;;;5016718;28;20046;-91
2022/09/08 14:01:26;;;;;;;7.97;6.82;;;19.70;99.90;;;;;;4967567;28;20047;-91
2022/09/08 14:04:02;;;;;;;8.63;7.00;;;20.10;99.90;;;;;;4990165;28;20062;-91
2022/09/08 14:06:56;;;;;;;7.68;6.88;;;20.10;99.90;;;;;;4981810;28;20082;-93
2022/09/08 14:09:27;;;;;;;7.72;6.97;;;20.10;99.90;;;;;;5001567;28;20125;-93
2022/09/08 14:12:00;;;;;;;7.78;6.97;;;20.00;99.90;;;;;;4993764;28;20770;-92
2022/09/08 14:14:28;;;;;;;9.35;7.32;;;20.30;99.90;;;;;;4993379;28;20860;-91
2022/09/08 14:17:21;;;;;;;9.20;8.10;;;20.40;99.90;;;;;;4979947;28;20095;-90
2022/09/08 14:20:30;;;;;;;8.02;7.22;;;20.70;99.90;;;;;;4964508;28;20142;-89
2022/09/08 14:23:00;;;;;;;12.77;8.18;;;20.50;99.90;;;;;;4994483;28;20099;-91
2022/09/08 14:25:37;;;;;;;8.52;7.63;;;20.50;99.90;;;;;;4980455;28;20053;-91
2022/09/08 14:28:18;;;;;;;9.23;8.30;;;20.60;99.90;;;;;;4972873;28;20337;-91
2022/09/08 14:31:11;;;;;;;9.93;8.35;;;20.90;99.90;;;;;;4955273;28;20233;-91
2022/09/08 14:33:47;;;;;;;11.07;8.73;;;20.80;99.90;;;;;;4975939;28;20058;-91
2022/09/08 14:36:16;;;;;;;11.48;8.80;;;20.70;99.90;;;;;;4966299;28;20042;-91
2022/09/08 14:38:51;;;;;;;10.50;8.52;;;20.60;99.90;;;;;;4987433;28;20519;-91
2022/09/08 14:41:43;;;;;;;13.98;9.13;;;20.70;7.30;;;;;;4972682;28;20388;-91
2022/09/08 14:44:43;;;;;;;9.48;8.45;;;20.70;99.90;;;;;;4942435;28;20043;-91
2022/09/08 14:47:24;;;;;;;12.23;9.27;;;20.70;99.90;;;;;;4992980;28;20034;-91
2022/09/08 14:50:18;;;;;;;11.68;9.75;;;20.80;1.00;;;;;;4990311;28;20042;-90
2022/09/08 14:53:12;;;;;;;10.38;9.38;;;20.60;99.90;;;;;;4973705;28;20039;-91
2022/09/08 14:55:53;;;;;;;10.80;9.77;;;20.50;1.00;;;;;;4972562;28;20117;-92
2022/09/08 14:58:34;;;;;;;10.65;9.40;;;20.60;58.20;;;;;;4994007;28;20046;-91
2022/09/08 15:01:25;;;;;;;11.05;9.45;;;20.60;1.00;;;;;;4965400;28;20046;-92
2022/09/08 15:04:03;;;;;;;11.70;9.25;;;20.60;84.70;;;;;;4966659;28;20047;-92
2022/09/08 15:06:47;;;;;;;12.30;9.32;;;20.70;99.90;;;;;;4998553;28;20058;-91
2022/09/08 15:09:31;;;;;;;11.77;9.75;;;20.50;99.90;;;;;;4963201;28;20097;-91
2022/09/08 15:12:08;;;;;;;10.73;8.90;;;20.40;99.90;;;;;;4989462;28;20199;-90
2022/09/08 15:15:12;;;;;;;12.18;9.50;;;20.40;78.80;;;;;;4969647;28;20066;-90
2022/09/08 15:17:57;;;;;;;12.95;10.18;;;20.40;99.90;;;;;;4961815;28;20132;-90
2022/09/08 15:20:30;;;;;;;9.80;8.90;;;20.50;1.00;;;;;;4981148;28;20541;-90
2022/09/08 15:23:20;;;;;;;10.77;9.68;;;20.50;99.90;;;;;;4970936;28;20128;-91
2022/09/08 15:25:56;;;;;;;12.40;9.52;;;20.40;99.90;;;;;;4990075;28;20056;-92
2022/09/08 15:28:23;;;;;;;11.30;9.25;;;20.60;99.90;;;;;;5001355;28;20125;-90
2022/09/08 15:31:21;;;;;;;11.45;8.80;;;20.70;99.90;;;;;;4965006;28;20046;-92
2022/09/08 15:34:05;;;;;;;10.98;8.65;;;20.70;99.90;;;;;;4970481;28;20110;-90
2022/09/08 15:36:56;;;;;;;10.20;9.20;;;20.40;1.00;;;;;;4968291;28;20042;-91
2022/09/08 15:39:28;;;;;;;11.48;10.27;;;20.40;99.90;;;;;;4984800;28;20034;-90
2022/09/08 15:42:19;;;;;;;12.07;10.55;;;20.20;99.90;;;;;;4980966;28;20088;-90
2022/09/08 15:45:02;;;;;;;11.60;9.90;;;20.00;99.90;;;;;;4965550;28;20069;-90
2022/09/08 15:47:53;;;;;;;13.00;10.10;;;20.10;99.90;;;;;;4980431;28;20045;-90
2022/09/08 15:50:56;;;;;;;11.05;9.75;;;20.20;99.90;;;;;;4990252;28;20054;-91
2022/09/08 15:53:28;;;;;;;12.43;10.65;;;20.00;99.90;;;;;;4993245;28;20443;-91
2022/09/08 15:55:53;;;;;;;12.55;10.45;;;19.90;99.90;;;;;;4970631;28;20111;-90
2022/09/08 15:58:41;;;;;;;15.55;10.68;;;19.80;99.90;;;;;;4990565;28;20038;-90
2022/09/08 16:01:28;;;;;;;12.07;10.18;;;19.70;99.90;;;;;;4965447;28;20065;-89
2022/09/08 16:04:11;;;;;;;13.00;10.90;;;19.60;99.90;;;;;;5001917;28;20044;-90
2022/09/08 16:06:57;;;;;;;12.73;10.55;;;19.50;99.90;;;;;;4986592;28;20042;-90
2022/09/08 16:09:26;;;;;;;13.10;11.68;;;19.40;99.90;;;;;;4976410;28;20345;-89
2022/09/08 16:12:08;;;;;;;13.90;11.20;;;19.50;99.90;;;;;;4990826;28;20045;-91
2022/09/08 16:14:48;;;;;;;12.32;10.18;;;19.50;99.90;;;;;;5001484;28;20046;-92
2022/09/08 16:17:18;;;;;;;10.85;9.38;;;19.40;99.90;;;;;;4998147;28;20045;-92
2022/09/08 16:20:10;;;;;;;10.82;9.50;;;19.60;99.90;;;;;;4970303;28;20094;-93
2022/09/08 16:22:36;;;;;;;10.63;9.52;;;19.60;99.90;;;;;;4963951;28;20062;-89
2022/09/08 16:25:05;;;;;;;12.38;10.30;;;19.70;99.90;;;;;;4966225;28;20054;-90
2022/09/08 16:28:02;;;;;;;12.73;10.20;;;19.80;99.90;;;;;;4994622;28;20121;-90
2022/09/08 16:30:37;;;;;;;11.68;10.45;;;19.90;99.90;;;;;;4986043;28;20039;-91
2022/09/08 16:33:15;;;;;;;13.40;10.43;;;19.90;99.90;;;;;;4997368;28;20371;-90
2022/09/08 16:36:04;;;;;;;14.00;10.65;;;19.90;99.90;;;;;;5005474;28;20130;-89
2022/09/08 16:38:43;;;;;;;11.02;9.70;;;19.90;99.90;;;;;;4956992;28;20034;-90
2022/09/08 16:41:31;;;;;;;11.63;9.52;;;19.90;99.90;;;;;;4993371;28;20617;-92
2022/09/08 16:44:18;;;;;;;12.13;9.25;;;19.80;99.90;;;;;;4991689;28;20039;-90
2022/09/08 16:46:44;;;;;;;9.00;7.38;;;19.70;99.90;;;;;;4966543;28;20585;-92
2022/09/08 16:49:33;;;;;;;7.30;6.55;;;19.50;99.90;;;;;;4976669;28;20129;-90
2022/09/08 16:52:26;;;;;;;8.82;6.95;;;19.60;99.90;;;;;;4991415;28;20050;-89
2022/09/08 16:55:05;;;;;;;8.35;6.30;;;19.40;99.90;;;;;;4969237;28;20046;-91
2022/09/08 16:57:42;;;;;;;6.95;5.65;;;19.20;99.90;;;;;;4992907;28;20030;-89
2022/09/08 17:00:21;;;;;;;6.05;5.35;;;19.10;99.90;;;;;;4986130;28;20126;-89
2022/09/08 17:03:12;;;;;;;8.05;5.18;;;19.20;99.90;;;;;;4972898;28;20129;-91
2022/09/08 17:05:51;;;;;;;8.30;5.07;;;19.00;99.90;;;;;;4988532;28;20046;-89
2022/09/08 17:08:40;;;;;;;6.43;4.90;;;18.90;99.90;;;;;;4963998;28;20050;-90
2022/09/08 17:11:26;;;;;;;5.97;5.07;;;18.80;99.90;;;;;;4963841;28;20054;-89
2022/09/08 17:13:54;;;;;;;6.40;5.13;;;18.90;99.90;;;;;;4990296;28;20034;-89
2022/09/08 17:16:38;;;;;;;8.43;5.13;;;18.70;99.90;;;;;;4970314;28;20262;-90
2022/09/08 17:19:18;;;;;;;6.65;5.72;;;18.60;99.90;;;;;;5005784;28;20114;-90
2022/09/08 17:21:52;;;;;;;6.40;5.25;;;18.80;99.90;;;;;;5007785;28;20054;-91